createdAt,value
2022-09-21T00:01:42.424Z,100983.50
2022-09-21T00:04:11.161Z,100982.17
2022-09-21T00:06:39.875Z,100981.13
2022-09-21T00:09:09.760Z,100980.52
2022-09-21T00:11:38.440Z,100974.65
2022-09-21T00:14:13.380Z,100976.93
2022-09-21T00:16:43.542Z,100978.02
2022-09-21T00:19:12.992Z,100981.98
2022-09-21T00:21:42.408Z,100983.73
2022-09-21T00:24:11.191Z,100986.27
2022-09-21T00:26:39.984Z,100989.95
2022-09-21T00:29:08.662Z,100991.45
2022-09-21T00:31:37.904Z,100982.46
2022-09-21T00:34:08.179Z,100995.11
2022-09-21T00:36:36.868Z,100994.91
2022-09-21T00:39:05.559Z,100998.31
2022-09-21T00:41:35.100Z,100993.08
2022-09-21T00:44:16.455Z,100994.89
2022-09-21T00:46:47.019Z,100989.29
2022-09-21T00:49:17.114Z,100986.34
2022-09-21T00:51:48.223Z,100986.09
2022-09-21T00:54:25.858Z,100985.59
2022-09-21T00:56:56.601Z,100987.25
2022-09-21T00:59:30.092Z,100986.23
2022-09-21T01:02:01.163Z,100975.57
2022-09-21T01:04:30.723Z,100985.14
2022-09-21T01:07:04.440Z,100986.55
2022-09-21T01:09:33.745Z,100984.77
2022-09-21T01:12:18.732Z,100983.98
2022-09-21T01:15:02.229Z,100985.05
2022-09-21T01:17:44.670Z,100983.15
2022-09-21T01:20:56.951Z,100984.92
2022-09-21T01:23:49.805Z,100982.32
2022-09-21T01:26:38.466Z,100979.30
2022-09-21T01:29:17.140Z,100980.80
2022-09-21T01:32:08.920Z,100980.64
2022-09-21T01:35:13.240Z,100981.39
2022-09-21T01:37:48.891Z,100982.64
2022-09-21T01:40:35.193Z,100977.86
2022-09-21T01:43:09.603Z,100977.02
2022-09-21T01:45:45.013Z,100975.85
2022-09-21T01:48:15.803Z,100973.05
2022-09-21T01:50:51.011Z,100972.38
2022-09-21T01:53:41.518Z,100973.91
2022-09-21T01:56:31.209Z,100971.48
2022-09-21T01:59:18.035Z,100970.23
2022-09-21T02:02:26.428Z,100971.43
2022-09-21T02:04:55.323Z,100971.52
2022-09-21T02:07:25.349Z,100979.70
2022-09-21T02:09:56.348Z,100980.79
2022-09-21T02:12:25.183Z,100983.42
2022-09-21T02:14:55.821Z,100984.66
2022-09-21T02:17:44.470Z,100982.09
2022-09-21T02:20:49.912Z,100990.91
2022-09-21T02:23:35.235Z,100990.73
2022-09-21T02:26:36.330Z,100993.38
2022-09-21T02:29:32.663Z,100992.36
2022-09-21T02:32:18.248Z,100990.14
2022-09-21T02:34:56.892Z,100987.57
2022-09-21T02:37:49.720Z,100987.30
2022-09-21T02:40:31.950Z,100982.78
2022-09-21T02:43:13.921Z,100983.95
2022-09-21T02:45:51.497Z,100982.76
2022-09-21T02:48:37.161Z,100983.64
2022-09-21T02:51:15.123Z,100984.07
2022-09-21T02:53:47.201Z,100982.93
2022-09-21T02:56:17.206Z,100979.64
2022-09-21T02:58:54.485Z,100982.67
2022-09-21T03:01:26.647Z,100981.36
2022-09-21T03:03:55.639Z,100977.70
2022-09-21T03:06:24.442Z,100975.81
2022-09-21T03:08:53.743Z,100978.80
2022-09-21T03:11:22.428Z,100981.64
2022-09-21T03:13:51.618Z,100984.84
2022-09-21T03:16:20.532Z,100981.34
2022-09-21T03:18:49.298Z,100977.63
2022-09-21T03:21:18.457Z,100981.14
2022-09-21T03:23:47.190Z,100981.83
2022-09-21T03:26:15.870Z,100981.63
2022-09-21T03:28:44.569Z,100978.01
2022-09-21T03:31:13.314Z,100980.15
2022-09-21T03:33:42.143Z,100982.37
2022-09-21T03:36:10.939Z,100979.77
2022-09-21T03:38:40.235Z,100977.50
2022-09-21T03:41:09.049Z,100977.54
2022-09-21T03:43:37.808Z,100980.29
2022-09-21T03:46:06.669Z,100978.83
2022-09-21T03:48:35.291Z,100980.63
2022-09-21T03:51:04.798Z,100980.31
2022-09-21T03:53:36.616Z,100978.96
2022-09-21T03:56:05.622Z,100981.63
2022-09-21T03:58:34.643Z,100985.15
2022-09-21T04:01:04.630Z,100989.39
2022-09-21T04:03:33.272Z,100989.52
2022-09-21T04:06:08.608Z,100992.12
2022-09-21T04:08:37.313Z,100996.05
2022-09-21T04:11:15.315Z,101000.40
2022-09-21T04:13:44.707Z,100999.91
2022-09-21T04:16:13.310Z,101004.46
2022-09-21T04:18:41.988Z,101005.23
2022-09-21T04:21:10.636Z,101006.52
2022-09-21T04:23:39.488Z,101009.39
2022-09-21T04:26:23.261Z,101010.89
2022-09-21T04:28:53.089Z,101011.13
2022-09-21T04:31:23.839Z,101010.21
2022-09-21T04:33:55.542Z,101015.11
2022-09-21T04:36:26.672Z,101016.46
2022-09-21T04:38:55.481Z,101016.95
2022-09-21T04:41:24.071Z,101019.90
2022-09-21T04:43:53.149Z,101021.09
2022-09-21T04:46:22.548Z,101024.64
2022-09-21T04:48:51.269Z,101028.05
2022-09-21T04:51:19.967Z,101026.13
2022-09-21T04:53:48.907Z,101028.60
2022-09-21T04:56:24.933Z,101027.39
2022-09-21T04:58:53.598Z,101030.21
2022-09-21T05:01:22.697Z,101031.49
2022-09-21T05:03:51.392Z,101033.15
2022-09-21T05:06:20.013Z,101033.47
2022-09-21T05:09:07.420Z,101033.48
2022-09-21T05:11:36.030Z,101033.84
2022-09-21T05:14:05.177Z,101036.91
2022-09-21T05:16:34.089Z,101040.15
2022-09-21T05:19:03.752Z,101039.92
2022-09-21T05:21:32.421Z,101040.25
2022-09-21T05:24:01.281Z,101042.30
2022-09-21T05:26:30.111Z,101044.51
2022-09-21T05:28:59.532Z,101040.08
2022-09-21T05:31:48.069Z,101043.09
2022-09-21T05:35:05.135Z,101044.49
2022-09-21T05:38:06.093Z,101044.33
2022-09-21T05:40:38.023Z,101047.89
2022-09-21T05:43:07.088Z,101049.84
2022-09-21T05:45:43.719Z,101046.36
2022-09-21T05:48:31.919Z,101047.16
2022-09-21T05:51:43.598Z,101044.96
2022-09-21T05:54:32.392Z,101039.84
2022-09-21T05:57:39.979Z,101046.16
2022-09-21T06:00:23.302Z,101044.69
2022-09-21T06:03:30.438Z,101049.15
2022-09-21T06:06:00.040Z,101049.40
2022-09-21T06:08:28.766Z,101054.09
2022-09-21T06:10:57.721Z,101054.05
2022-09-21T06:13:26.803Z,101049.48
2022-09-21T06:15:55.509Z,101056.73
2022-09-21T06:18:24.156Z,101058.87
2022-09-21T06:20:52.750Z,101064.95
2022-09-21T06:23:21.628Z,101067.13
2022-09-21T06:25:58.411Z,101069.64
2022-09-21T06:28:28.635Z,101071.09
2022-09-21T06:30:58.594Z,101079.12
2022-09-21T06:33:27.316Z,101075.48
2022-09-21T06:36:00.815Z,101075.03
2022-09-21T06:38:29.813Z,101081.49
2022-09-21T06:41:03.877Z,101081.33
2022-09-21T06:43:33.178Z,101080.08
2022-09-21T06:46:03.519Z,101078.71
2022-09-21T06:48:35.589Z,101081.27
2022-09-21T06:51:06.628Z,101086.89
2022-09-21T06:53:35.776Z,101083.75
2022-09-21T06:56:08.849Z,101087.38
2022-09-21T06:58:38.903Z,101087.64
2022-09-21T07:01:12.811Z,101078.27
2022-09-21T07:03:43.789Z,101085.95
2022-09-21T07:06:14.376Z,101089.27
2022-09-21T07:11:33.174Z,101084.56
2022-09-21T07:14:01.853Z,101085.39
2022-09-21T07:16:30.568Z,101085.79
2022-09-21T07:19:11.155Z,101086.24
2022-09-21T07:21:40.443Z,101080.91
2022-09-21T07:24:12.464Z,101086.86
2022-09-21T07:26:41.556Z,101092.52
2022-09-21T07:29:10.253Z,101090.65
2022-09-21T07:31:39.354Z,101096.74
2022-09-21T07:34:08.145Z,101092.89
2022-09-21T07:36:36.957Z,101094.98
2022-09-21T07:39:05.773Z,101097.09
2022-09-21T07:41:34.416Z,101092.65
2022-09-21T07:44:04.033Z,101095.85
2022-09-21T07:46:33.029Z,101093.05
2022-09-21T07:49:01.691Z,101090.52
2022-09-21T07:51:30.813Z,101098.14
2022-09-21T07:53:59.464Z,101094.09
2022-09-21T07:56:28.108Z,101090.40
2022-09-21T07:59:09.173Z,101095.32
2022-09-21T08:01:42.304Z,101092.54
2022-09-21T08:04:11.832Z,101088.66
2022-09-21T08:06:40.576Z,101090.17
2022-09-21T08:09:09.312Z,101092.89
2022-09-21T08:11:37.970Z,101093.48
2022-09-21T08:14:07.349Z,101096.22
2022-09-21T08:16:39.515Z,101099.91
2022-09-21T08:19:08.232Z,101096.11
2022-09-21T08:21:36.973Z,101094.82
2022-09-21T08:24:06.132Z,101092.95
2022-09-21T08:26:36.931Z,101093.27
2022-09-21T08:29:06.764Z,101094.91
2022-09-21T08:31:35.554Z,101095.77
2022-09-21T08:34:04.329Z,101099.78
2022-09-21T08:36:33.079Z,101095.83
2022-09-21T08:39:01.787Z,101098.33
2022-09-21T08:41:55.106Z,101092.98
2022-09-21T08:45:05.572Z,101094.46
2022-09-21T08:47:47.030Z,101094.27
2022-09-21T08:52:32.692Z,101093.27
2022-09-21T08:55:17.735Z,101092.38
2022-09-21T08:57:46.577Z,101087.86
2022-09-21T09:00:19.828Z,101087.14
2022-09-21T09:02:55.083Z,101082.86
2022-09-21T09:06:24.698Z,101077.81
2022-09-21T09:09:30.762Z,101078.89
2022-09-21T09:12:15.884Z,101067.44
2022-09-21T09:15:02.887Z,101065.46
2022-09-21T09:17:56.387Z,101069.33
2022-09-21T09:20:43.124Z,101066.15
2022-09-21T09:23:18.290Z,101062.64
2022-09-21T09:25:54.638Z,101059.08
2022-09-21T09:28:31.995Z,101058.62
2022-09-21T09:31:11.262Z,101057.77
2022-09-21T09:33:54.283Z,101052.27
2022-09-21T09:36:56.710Z,101050.55
2022-09-21T09:39:19.396Z,101046.34
2022-09-21T09:42:09.853Z,101045.05
2022-09-21T09:45:02.381Z,101033.02
2022-09-21T09:48:17.373Z,101036.80
2022-09-21T09:50:46.820Z,101038.00
2022-09-21T09:53:23.672Z,101036.73
2022-09-21T09:55:56.378Z,101039.44
2022-09-21T09:58:38.460Z,101041.55
2022-09-21T10:01:07.111Z,101045.34
2022-09-21T10:03:36.542Z,101041.54
2022-09-21T10:06:05.317Z,101038.64
2022-09-21T10:08:36.814Z,101032.17
2022-09-21T10:11:06.490Z,101037.50
2022-09-21T10:13:40.738Z,101039.96
2022-09-21T10:16:18.553Z,101043.30
2022-09-21T10:19:04.096Z,101046.01
2022-09-21T10:21:47.586Z,101046.13
2022-09-21T10:24:40.911Z,101040.85
2022-09-21T10:27:15.592Z,101041.67
2022-09-21T10:29:47.453Z,101035.61
2022-09-21T10:32:16.566Z,101028.64
2022-09-21T10:35:07.920Z,101025.70
2022-09-21T10:37:42.885Z,101022.77
2022-09-21T10:40:36.872Z,101017.08
2022-09-21T10:43:05.913Z,101020.98
2022-09-21T10:45:37.512Z,101018.69
2022-09-21T10:48:06.109Z,101024.73
2022-09-21T10:50:43.048Z,101013.56
2022-09-21T10:53:30.804Z,101012.08
2022-09-21T10:56:17.713Z,101013.45
2022-09-21T10:59:25.481Z,101010.40
2022-09-21T11:01:58.533Z,101007.64
2022-09-21T11:04:57.539Z,101003.52
2022-09-21T11:07:58.380Z,100998.43
2022-09-21T11:10:51.402Z,101001.83
2022-09-21T11:13:47.159Z,100997.33
2022-09-21T11:16:23.744Z,100994.77
2022-09-21T11:19:32.858Z,100997.55
2022-09-21T11:22:33.002Z,100988.00
2022-09-21T11:25:31.257Z,100992.34
2022-09-21T11:28:24.680Z,101006.08
2022-09-21T11:31:19.782Z,101017.88
2022-09-21T11:34:31.463Z,101021.66
2022-09-21T11:37:51.694Z,101027.25
2022-09-21T11:41:02.028Z,101032.42
2022-09-21T11:43:50.257Z,101031.43
2022-09-21T11:47:24.541Z,101023.33
2022-09-21T11:50:31.231Z,101022.21
2022-09-21T11:53:24.209Z,101024.92
2022-09-21T11:56:46.553Z,101014.66
2022-09-21T11:59:24.285Z,101019.61
2022-09-21T12:02:24.918Z,101019.02
2022-09-21T12:05:22.558Z,101013.14
2022-09-21T12:08:34.413Z,101015.42
2022-09-21T12:11:29.995Z,101015.02
2022-09-21T12:14:13.850Z,101012.19
2022-09-21T12:16:51.321Z,101006.00
2022-09-21T12:19:33.987Z,101005.39
2022-09-21T12:22:50.330Z,101005.84
2022-09-21T12:25:33.024Z,101001.41
2022-09-21T12:28:28.143Z,101002.83
2022-09-21T12:31:04.706Z,101001.92
2022-09-21T12:33:40.976Z,101000.15
2022-09-21T12:36:41.867Z,100998.26
2022-09-21T12:39:30.583Z,101011.66
2022-09-21T12:42:41.146Z,101009.55
2022-09-21T12:45:33.421Z,101013.31
2022-09-21T12:48:35.451Z,101010.30
2022-09-21T12:51:24.887Z,101008.04
2022-09-21T12:53:59.929Z,101007.64
2022-09-21T12:56:37.682Z,101004.04
2022-09-21T12:59:50.412Z,101003.45
2022-09-21T13:02:37.624Z,100998.77
2022-09-21T13:05:30.852Z,100997.23
2022-09-21T13:08:12.564Z,100999.36
2022-09-21T13:11:04.811Z,100991.67
2022-09-21T13:13:53.581Z,100989.27
2022-09-21T13:16:40.070Z,100988.86
2022-09-21T13:19:14.611Z,100981.77
2022-09-21T13:21:44.475Z,100978.44
2022-09-21T13:24:31.087Z,100975.24
2022-09-21T13:27:05.307Z,100975.45
2022-09-21T13:29:38.290Z,100975.76
2022-09-21T13:32:10.908Z,100976.63
2022-09-21T13:34:45.607Z,100974.15
2022-09-21T13:37:20.323Z,100969.61
2022-09-21T13:40:04.458Z,100968.59
2022-09-21T13:42:33.263Z,100968.97
2022-09-21T13:45:19.064Z,100969.48
2022-09-21T13:48:00.399Z,100968.42
2022-09-21T13:50:43.475Z,100965.20
2022-09-21T13:53:25.652Z,100963.32
2022-09-21T13:56:06.107Z,100974.66
2022-09-21T13:58:42.987Z,100981.67
2022-09-21T14:04:37.362Z,100972.85
2022-09-21T14:07:08.392Z,100971.11
2022-09-21T14:09:59.776Z,100965.95
2022-09-21T14:12:35.347Z,100969.92
2022-09-21T14:15:19.627Z,100968.90
2022-09-21T14:18:18.826Z,100963.02
2022-09-21T14:21:17.521Z,100966.59
2022-09-21T14:24:07.969Z,100962.65
2022-09-21T14:26:49.570Z,100967.70
2022-09-21T14:29:38.718Z,100968.14
2022-09-21T14:32:18.556Z,100971.98
2022-09-21T14:34:51.083Z,100982.15
2022-09-21T14:37:39.810Z,100985.52
2022-09-21T14:40:39.391Z,100987.05
2022-09-21T14:43:15.793Z,100990.29
2022-09-21T14:46:18.498Z,100994.17
2022-09-21T14:49:39.224Z,100999.95
2022-09-21T14:52:58.764Z,101012.03
2022-09-21T14:56:00.250Z,101017.89
2022-09-21T14:58:53.354Z,101022.45
2022-09-21T15:01:32.116Z,101018.66
2022-09-21T15:04:29.936Z,101019.70
2022-09-21T15:07:57.937Z,101016.89
2022-09-21T15:10:58.218Z,101020.23
2022-09-21T15:14:06.972Z,101022.95
2022-09-21T15:16:51.920Z,101006.18
2022-09-21T15:19:29.102Z,101037.80
2022-09-21T15:22:18.531Z,101043.16
2022-09-21T15:24:59.561Z,101043.91
2022-09-21T15:27:33.726Z,101043.78
2022-09-21T15:30:06.727Z,101046.97
2022-09-21T15:32:45.283Z,101042.38
2022-09-21T15:35:24.308Z,101041.33
2022-09-21T15:37:54.022Z,101046.52
2022-09-21T15:40:30.382Z,101053.31
2022-09-21T15:43:19.733Z,101052.23
2022-09-21T15:46:07.728Z,101055.72
2022-09-21T15:48:42.718Z,101059.15
2022-09-21T15:51:35.989Z,101062.55
2022-09-21T15:54:16.009Z,101067.42
2022-09-21T15:56:45.222Z,101067.69
2022-09-21T15:59:20.965Z,101068.80
2022-09-21T16:01:55.313Z,101069.27
2022-09-21T16:04:27.594Z,101073.38
2022-09-21T16:07:24.739Z,101077.34
2022-09-21T16:09:53.630Z,101084.19
2022-09-21T16:12:43.463Z,101076.80
2022-09-21T16:15:28.635Z,101074.81
2022-09-21T16:18:05.759Z,101078.35
2022-09-21T16:20:42.243Z,101080.27
2022-09-21T16:23:30.167Z,101074.58
2022-09-21T16:26:01.773Z,101071.00
2022-09-21T16:28:41.591Z,101076.18
2022-09-21T16:31:30.280Z,101077.84
2022-09-21T16:34:35.467Z,101080.71
2022-09-21T16:37:27.082Z,101084.99
2022-09-21T16:39:58.861Z,101082.45
2022-09-21T16:42:33.543Z,101087.08
2022-09-21T16:45:19.788Z,101088.09
2022-09-21T16:47:48.455Z,101089.73
2022-09-21T16:50:19.298Z,101095.56
2022-09-21T16:52:52.798Z,101094.33
2022-09-21T16:55:24.461Z,101098.84
2022-09-21T16:57:57.740Z,101103.63
2022-09-21T17:00:31.024Z,101101.55
2022-09-21T17:03:01.261Z,101106.60
2022-09-21T17:05:29.927Z,101116.98
2022-09-21T17:08:00.038Z,101123.07
2022-09-21T17:10:37.677Z,101128.45
2022-09-21T17:13:07.274Z,101135.23
2022-09-21T17:15:38.780Z,101136.77
2022-09-21T17:18:10.266Z,101139.84
2022-09-21T17:20:42.617Z,101143.95
2022-09-21T17:23:11.577Z,101147.02
2022-09-21T17:25:40.429Z,101146.59
2022-09-21T17:28:26.081Z,101141.54
2022-09-21T17:30:55.167Z,101141.13
2022-09-21T17:33:26.468Z,101138.67
2022-09-21T17:35:55.512Z,101140.61
2022-09-21T17:38:24.350Z,101143.02
2022-09-21T17:40:53.880Z,101141.26
2022-09-21T17:43:53.776Z,101145.41
2022-09-21T17:47:09.791Z,101141.83
2022-09-21T17:49:39.252Z,101142.13
2022-09-21T17:52:41.957Z,101142.79
2022-09-21T17:55:13.691Z,101150.31
2022-09-21T17:57:59.707Z,101151.49
2022-09-21T18:01:08.608Z,101154.73
2022-09-21T18:03:42.727Z,101155.12
2022-09-21T18:06:12.536Z,101155.95
2022-09-21T18:08:41.657Z,101154.83
2022-09-21T18:11:25.217Z,101157.44
2022-09-21T18:14:17.954Z,101159.48
2022-09-21T18:17:32.621Z,101157.67
2022-09-21T18:20:13.080Z,101160.12
2022-09-21T18:23:26.607Z,101161.77
2022-09-21T18:25:59.178Z,101165.88
2022-09-21T18:28:47.101Z,101166.18
2022-09-21T18:31:37.166Z,101165.75
2022-09-21T18:34:51.306Z,101163.77
2022-09-21T18:37:46.267Z,101159.90
2022-09-21T18:40:33.205Z,101156.92
2022-09-21T18:43:41.753Z,101158.94
2022-09-21T18:46:50.713Z,101157.62
2022-09-21T18:49:47.887Z,101162.54
2022-09-21T18:52:36.367Z,101161.92
2022-09-21T18:55:27.188Z,101162.17
2022-09-21T18:57:57.711Z,101157.13
2022-09-21T19:00:35.950Z,101157.61
2022-09-21T19:03:19.245Z,101156.20
2022-09-21T19:06:19.451Z,101158.81
2022-09-21T19:09:40.983Z,101158.96
2022-09-21T19:12:47.654Z,101158.33
2022-09-21T19:16:01.031Z,101152.95
2022-09-21T19:18:39.404Z,101152.66
2022-09-21T19:21:51.611Z,101151.02
2022-09-21T19:24:26.125Z,101152.61
2022-09-21T19:27:33.266Z,101147.21
2022-09-21T19:30:14.319Z,101151.14
2022-09-21T19:32:54.416Z,101149.60
2022-09-21T19:35:31.797Z,101145.17
2022-09-21T19:38:04.219Z,101143.28
2022-09-21T19:40:39.657Z,101141.87
2022-09-21T19:43:36.895Z,101141.81
2022-09-21T19:46:37.627Z,101144.41
2022-09-21T19:49:19.628Z,101146.23
2022-09-21T19:51:53.769Z,101145.35
2022-09-21T19:54:44.486Z,101146.00
2022-09-21T19:57:38.758Z,101149.89
2022-09-21T20:00:16.039Z,101152.53
2022-09-21T20:03:31.925Z,101150.71
2022-09-21T20:06:12.198Z,101147.34
2022-09-21T20:08:51.736Z,101148.84
2022-09-21T20:12:07.622Z,101148.40
2022-09-21T20:15:12.291Z,101141.48
2022-09-21T20:17:52.909Z,101149.83
2022-09-21T20:20:26.515Z,101155.12
2022-09-21T20:22:56.039Z,101151.86
2022-09-21T20:25:56.241Z,101153.08
2022-09-21T20:28:25.770Z,101156.50
2022-09-21T20:30:57.537Z,101160.92
2022-09-21T20:33:27.207Z,101161.96
2022-09-21T20:35:57.224Z,101165.40
2022-09-21T20:38:25.904Z,101167.19
2022-09-21T20:40:58.101Z,101166.27
2022-09-21T20:43:31.798Z,101166.58
2022-09-21T20:46:04.736Z,101167.53
2022-09-21T20:48:33.455Z,101168.52
2022-09-21T20:51:04.292Z,101170.05
2022-09-21T20:53:36.248Z,101166.10
2022-09-21T20:56:05.079Z,101167.73
2022-09-21T20:58:35.003Z,101160.52
2022-09-21T21:01:08.644Z,101156.91
2022-09-21T21:03:37.642Z,101157.85
2022-09-21T21:06:16.075Z,101156.48
2022-09-21T21:08:46.342Z,101160.55
2022-09-21T21:11:14.924Z,101156.73
2022-09-21T21:13:43.609Z,101152.65
2022-09-21T21:16:12.683Z,101154.61
2022-09-21T21:18:42.063Z,101148.27
2022-09-21T21:21:11.919Z,101151.93
2022-09-21T21:23:59.070Z,101149.75
2022-09-21T21:26:50.234Z,101154.88
2022-09-21T21:29:16.474Z,101153.04
2022-09-21T21:31:48.342Z,101154.19
2022-09-21T21:34:17.859Z,101151.20
2022-09-21T21:36:46.576Z,101146.41
2022-09-21T21:39:15.330Z,101150.86
2022-09-21T21:41:44.729Z,101150.50
2022-09-21T21:44:13.749Z,101150.69
2022-09-21T21:46:43.556Z,101146.60
2022-09-21T21:49:12.329Z,101146.31
2022-09-21T21:51:41.006Z,101153.27
2022-09-21T21:54:09.699Z,101152.89
2022-09-21T21:56:38.378Z,101156.83
2022-09-21T21:59:07.064Z,101155.39
2022-09-21T22:01:35.927Z,101154.84
2022-09-21T22:04:04.621Z,101155.87
2022-09-21T22:06:37.767Z,101151.80
2022-09-21T22:09:07.885Z,101152.98
2022-09-21T22:11:37.774Z,101149.21
2022-09-21T22:14:08.523Z,101148.04
2022-09-21T22:16:40.551Z,101149.94
2022-09-21T22:19:09.777Z,101148.08
2022-09-21T22:21:48.212Z,101145.67
2022-09-21T22:24:19.340Z,101142.87
2022-09-21T22:26:51.680Z,101143.33
2022-09-21T22:29:20.607Z,101136.77
2022-09-21T22:31:50.982Z,101140.35
2022-09-21T22:34:20.803Z,101138.48
2022-09-21T22:36:50.665Z,101136.61
2022-09-21T22:39:19.501Z,101134.12
2022-09-21T22:41:48.333Z,101135.26
2022-09-21T22:44:17.253Z,101129.45
2022-09-21T22:46:45.971Z,101130.00
2022-09-21T22:49:14.706Z,101130.30
2022-09-21T22:51:43.403Z,101128.57
2022-09-21T22:54:12.077Z,101129.63
2022-09-21T22:56:40.864Z,101128.77
2022-09-21T22:59:09.975Z,101131.38
2022-09-21T23:01:41.017Z,101133.90
2022-09-21T23:04:13.570Z,101132.60
2022-09-21T23:06:45.434Z,101132.96
2022-09-21T23:09:19.837Z,101128.27
2022-09-21T23:11:53.800Z,101126.93
2022-09-21T23:14:23.882Z,101127.27
2022-09-21T23:16:53.494Z,101126.91
2022-09-21T23:19:22.246Z,101128.20
2022-09-21T23:21:51.693Z,101122.61
2022-09-21T23:24:21.216Z,101122.92
2022-09-21T23:26:53.463Z,101123.05
2022-09-21T23:29:22.251Z,101122.88
2022-09-21T23:31:51.571Z,101120.34
2022-09-21T23:34:20.263Z,101121.61
2022-09-21T23:36:49.040Z,101118.16
2022-09-21T23:39:17.818Z,101119.80
2022-09-21T23:41:46.638Z,101114.70
2022-09-21T23:44:16.131Z,101115.38
2022-09-21T23:46:45.284Z,101111.42
2022-09-21T23:49:14.216Z,101111.08
2022-09-21T23:51:42.895Z,101112.20
2022-09-21T23:54:11.780Z,101109.81
2022-09-21T23:56:40.576Z,101106.65
2022-09-21T23:59:10.180Z,101110.15
